createdAt,value
2023-04-04T00:00:49.477Z,2.50
2023-04-04T00:03:17.761Z,2.50
2023-04-04T00:05:46.701Z,2.50
2023-04-04T00:08:14.906Z,2.40
2023-04-04T00:10:43.273Z,2.40
2023-04-04T00:13:12.045Z,2.30
2023-04-04T00:15:42.702Z,2.30
2023-04-04T00:18:12.256Z,2.30
2023-04-04T00:20:40.687Z,2.20
2023-04-04T00:23:11.211Z,2.20
2023-04-04T00:25:41.868Z,2.20
2023-04-04T00:28:10.041Z,2.10
2023-04-04T00:30:38.545Z,2.10
2023-04-04T00:33:06.914Z,2.00
2023-04-04T00:35:37.052Z,1.90
2023-04-04T00:38:05.381Z,1.90
2023-04-04T00:40:33.552Z,1.80
2023-04-04T00:43:01.972Z,1.80
2023-04-04T00:45:31.396Z,1.80
2023-04-04T00:48:00.785Z,1.80
2023-04-04T00:50:32.210Z,1.70
2023-04-04T00:53:02.806Z,1.70
2023-04-04T00:55:31.341Z,1.60
2023-04-04T00:58:00.010Z,1.60
2023-04-04T01:00:28.720Z,1.60
2023-04-04T01:02:59.450Z,1.50
2023-04-04T01:05:27.677Z,1.50
2023-04-04T01:07:56.699Z,1.40
2023-04-04T01:10:26.334Z,1.40
2023-04-04T01:12:55.485Z,1.40
2023-04-04T01:15:23.755Z,1.40
2023-04-04T01:17:55.036Z,1.30
2023-04-04T01:20:26.660Z,1.30
2023-04-04T01:22:58.824Z,1.20
2023-04-04T01:25:31.936Z,1.20
2023-04-04T01:28:04.496Z,1.20
2023-04-04T01:30:36.289Z,1.20
2023-04-04T01:33:10.912Z,1.20
2023-04-04T01:35:45.146Z,1.10
2023-04-04T01:38:20.051Z,1.10
2023-04-04T01:40:53.511Z,1.10
2023-04-04T01:43:22.479Z,1.10
2023-04-04T01:45:50.856Z,1.10
2023-04-04T01:48:20.856Z,1.10
2023-04-04T01:50:53.360Z,1.00
2023-04-04T01:53:22.215Z,1.00
2023-04-04T01:55:51.725Z,1.00
2023-04-04T01:58:21.360Z,1.00
2023-04-04T02:00:49.637Z,0.90
2023-04-04T02:03:17.855Z,0.90
2023-04-04T02:05:46.447Z,0.90
2023-04-04T02:08:15.231Z,0.90
2023-04-04T02:10:52.586Z,0.90
2023-04-04T02:13:20.888Z,0.90
2023-04-04T02:15:52.538Z,0.90
2023-04-04T02:18:21.019Z,0.80
2023-04-04T02:20:56.997Z,0.80
2023-04-04T02:23:25.318Z,0.80
2023-04-04T02:25:54.930Z,0.70
2023-04-04T02:28:23.174Z,0.70
2023-04-04T02:30:52.240Z,0.70
2023-04-04T02:33:22.378Z,0.60
2023-04-04T02:35:53.264Z,0.60
2023-04-04T02:41:09.818Z,0.50
2023-04-04T02:43:38.035Z,0.50
2023-04-04T02:46:20.370Z,0.50
2023-04-04T02:48:52.192Z,0.50
2023-04-04T02:51:20.930Z,0.40
2023-04-04T02:53:49.168Z,0.40
2023-04-04T02:56:27.737Z,0.40
2023-04-04T02:58:56.083Z,0.40
2023-04-04T03:01:24.363Z,0.40
2023-04-04T03:03:52.631Z,0.40
2023-04-04T03:06:21.521Z,0.30
2023-04-04T03:08:51.190Z,0.30
2023-04-04T03:11:21.496Z,0.30
2023-04-04T03:13:52.567Z,0.30
2023-04-04T03:16:25.677Z,0.20
2023-04-04T03:18:55.021Z,0.20
2023-04-04T03:21:23.503Z,0.20
2023-04-04T03:23:51.986Z,0.10
2023-04-04T03:26:20.514Z,0.20
2023-04-04T03:28:50.963Z,0.20
2023-04-04T03:31:23.455Z,0.20
2023-04-04T03:33:51.988Z,0.10
2023-04-04T03:36:20.149Z,0.10
2023-04-04T03:42:21.247Z,0.10
2023-04-04T03:44:50.066Z,0.00
2023-04-04T03:47:30.121Z,0.00
2023-04-04T03:49:59.981Z,0.00
2023-04-04T03:52:29.073Z,0.00
2023-04-04T03:54:57.236Z,0.00
2023-04-04T03:57:25.631Z,0.00
2023-04-04T03:59:53.893Z,0.00
2023-04-04T04:02:24.199Z,0.00
2023-04-04T04:04:54.841Z,0.00
2023-04-04T04:07:23.031Z,0.00
2023-04-04T04:09:51.386Z,0.00
2023-04-04T04:12:19.675Z,0.00
2023-04-04T04:14:49.795Z,-0.10
2023-04-04T04:17:18.100Z,-0.10
2023-04-04T04:19:57.705Z,-0.10
2023-04-04T04:22:27.603Z,-0.10
2023-04-04T04:24:55.913Z,-0.10
2023-04-04T04:27:25.966Z,-0.10
2023-04-04T04:29:54.188Z,0.00
2023-04-04T04:32:23.023Z,0.00
2023-04-04T04:34:54.502Z,-0.10
2023-04-04T04:37:32.124Z,-0.10
2023-04-04T04:40:01.982Z,0.00
2023-04-04T04:42:38.081Z,-0.10
2023-04-04T04:45:08.279Z,0.00
2023-04-04T04:47:38.853Z,0.00
2023-04-04T04:50:10.041Z,0.10
2023-04-04T04:55:52.288Z,0.20
2023-04-04T04:58:25.838Z,0.20
2023-04-04T05:00:59.935Z,0.30
2023-04-04T05:03:36.685Z,0.40
2023-04-04T05:06:07.947Z,0.50
2023-04-04T05:08:42.139Z,0.50
2023-04-04T05:11:24.125Z,0.60
2023-04-04T05:13:53.434Z,0.70
2023-04-04T05:16:29.992Z,0.60
2023-04-04T05:18:59.748Z,0.70
2023-04-04T05:21:34.111Z,0.60
2023-04-04T05:24:07.332Z,0.70
2023-04-04T05:26:45.570Z,0.80
2023-04-04T05:29:34.425Z,0.90
2023-04-04T05:32:19.545Z,1.00
2023-04-04T05:34:55.410Z,1.00
2023-04-04T05:37:29.140Z,1.10
2023-04-04T05:39:59.520Z,1.30
2023-04-04T05:45:42.240Z,1.30
2023-04-04T05:48:11.232Z,1.40
2023-04-04T05:50:49.125Z,1.50
2023-04-04T05:53:20.742Z,1.60
2023-04-04T05:55:56.544Z,1.60
2023-04-04T05:58:30.943Z,1.60
2023-04-04T06:01:53.912Z,1.70
2023-04-04T06:04:23.001Z,1.80
2023-04-04T06:06:52.086Z,1.90
2023-04-04T06:09:21.852Z,1.90
2023-04-04T06:11:51.570Z,2.00
2023-04-04T06:14:19.767Z,2.10
2023-04-04T06:16:50.452Z,2.10
2023-04-04T06:19:20.104Z,2.20
2023-04-04T06:21:51.669Z,2.20
2023-04-04T06:24:22.381Z,2.30
2023-04-04T06:27:00.685Z,2.40
2023-04-04T06:29:33.341Z,2.40
2023-04-04T06:32:24.522Z,2.50
2023-04-04T06:34:53.476Z,2.60
2023-04-04T06:37:31.273Z,2.60
2023-04-04T06:40:16.570Z,2.70
2023-04-04T06:43:10.696Z,2.70
2023-04-04T06:45:41.522Z,2.70
2023-04-04T06:48:09.693Z,2.80
2023-04-04T06:50:40.805Z,2.90
2023-04-04T06:53:19.412Z,2.90
2023-04-04T06:55:48.163Z,3.10
2023-04-04T06:58:20.002Z,3.20
2023-04-04T07:00:50.628Z,3.30
2023-04-04T07:03:18.799Z,3.50
2023-04-04T07:05:50.893Z,3.60
2023-04-04T07:08:18.984Z,3.80
2023-04-04T07:11:10.804Z,4.10
2023-04-04T07:13:43.014Z,4.30
2023-04-04T07:16:11.856Z,4.50
2023-04-04T07:18:39.998Z,4.60
2023-04-04T07:21:10.821Z,4.60
2023-04-04T07:23:38.960Z,4.80
2023-04-04T07:26:07.082Z,4.90
2023-04-04T07:28:37.499Z,5.10
2023-04-04T07:31:07.067Z,5.30
2023-04-04T07:33:35.206Z,5.50
2023-04-04T07:36:03.413Z,5.50
2023-04-04T07:38:33.587Z,5.70
2023-04-04T07:41:04.892Z,5.80
2023-04-04T07:43:34.023Z,6.10
2023-04-04T07:46:02.560Z,6.20
2023-04-04T07:48:32.082Z,6.30
2023-04-04T07:51:03.166Z,6.50
2023-04-04T07:53:31.546Z,6.70
2023-04-04T07:56:06.173Z,6.60
2023-04-04T07:58:37.689Z,6.60
2023-04-04T08:01:05.851Z,6.60
2023-04-04T08:03:35.443Z,6.70
2023-04-04T08:06:03.734Z,6.70
2023-04-04T08:08:34.983Z,6.70
2023-04-04T08:11:03.160Z,6.70
2023-04-04T08:13:31.537Z,6.70
2023-04-04T08:15:59.962Z,6.70
2023-04-04T08:18:28.406Z,6.70
2023-04-04T08:21:00.252Z,6.60
2023-04-04T08:23:31.136Z,6.50
2023-04-04T08:25:59.986Z,6.50
2023-04-04T08:28:28.473Z,6.50
2023-04-04T08:30:56.909Z,6.50
2023-04-04T08:33:37.174Z,6.70
2023-04-04T08:36:13.982Z,7.60
2023-04-04T08:38:42.109Z,8.20
2023-04-04T08:41:10.957Z,8.30
2023-04-04T08:43:41.328Z,8.10
2023-04-04T08:46:11.520Z,7.80
2023-04-04T08:48:42.815Z,7.60
2023-04-04T08:51:14.671Z,7.60
2023-04-04T08:53:42.906Z,8.50
2023-04-04T08:56:11.194Z,10.20
2023-04-04T08:58:39.547Z,11.90
2023-04-04T09:01:08.115Z,13.80
2023-04-04T09:03:37.405Z,15.30
2023-04-04T09:06:06.675Z,16.90
2023-04-04T09:08:36.348Z,18.40
2023-04-04T09:11:04.996Z,19.80
2023-04-04T09:13:33.456Z,21.10
2023-04-04T09:16:02.058Z,22.00
2023-04-04T09:18:30.283Z,21.50
2023-04-04T09:20:58.410Z,20.70
2023-04-04T09:23:26.545Z,20.60
2023-04-04T09:26:03.820Z,21.20
2023-04-04T09:28:33.812Z,22.10
2023-04-04T09:31:05.569Z,21.70
2023-04-04T09:33:36.474Z,20.70
2023-04-04T09:36:08.089Z,19.70
2023-04-04T09:38:39.062Z,19.30
2023-04-04T09:41:10.962Z,19.90
2023-04-04T09:43:41.002Z,20.90
2023-04-04T09:46:10.135Z,21.70
2023-04-04T09:48:38.451Z,22.50
2023-04-04T09:51:08.163Z,22.20
2023-04-04T09:53:38.068Z,21.00
2023-04-04T09:56:07.663Z,19.60
2023-04-04T09:58:46.246Z,18.40
2023-04-04T10:01:20.945Z,17.60
2023-04-04T10:03:53.731Z,17.40
2023-04-04T10:06:22.501Z,16.50
2023-04-04T10:08:51.289Z,15.70
2023-04-04T10:11:31.147Z,15.00
2023-04-04T10:14:02.738Z,14.30
2023-04-04T10:16:33.584Z,14.20
2023-04-04T10:19:03.531Z,14.60
2023-04-04T10:21:32.153Z,15.80
2023-04-04T10:24:02.204Z,16.70
2023-04-04T10:26:30.405Z,16.60
2023-04-04T10:29:00.596Z,16.00
2023-04-04T10:31:29.923Z,15.20
2023-04-04T10:34:11.685Z,14.30
2023-04-04T10:36:47.212Z,13.60
2023-04-04T10:39:19.719Z,13.00
2023-04-04T10:41:52.145Z,12.50
2023-04-04T10:44:26.091Z,12.20
2023-04-04T10:46:59.711Z,11.80
2023-04-04T10:49:31.764Z,11.40
2023-04-04T10:52:00.188Z,11.10
2023-04-04T10:54:30.343Z,10.70
2023-04-04T10:57:01.547Z,10.30
2023-04-04T10:59:31.365Z,10.10
2023-04-04T11:02:00.600Z,9.90
2023-04-04T11:04:37.913Z,9.80
2023-04-04T11:07:17.575Z,9.70
2023-04-04T11:09:53.514Z,9.60
2023-04-04T11:12:30.473Z,9.60
2023-04-04T11:15:09.761Z,9.50
2023-04-04T11:17:59.973Z,9.40
2023-04-04T11:20:33.693Z,9.30
2023-04-04T11:23:10.786Z,9.10
2023-04-04T11:25:41.257Z,8.90
2023-04-04T11:28:14.884Z,8.80
2023-04-04T11:30:50.259Z,8.60
2023-04-04T11:33:28.999Z,8.50
2023-04-04T11:36:01.726Z,8.50
2023-04-04T11:38:32.585Z,8.30
2023-04-04T11:41:01.195Z,8.10
2023-04-04T11:43:29.793Z,7.90
2023-04-04T11:46:08.941Z,7.80
2023-04-04T11:48:39.778Z,7.70
2023-04-04T11:51:09.371Z,7.60
2023-04-04T11:53:38.426Z,7.70
2023-04-04T11:56:07.386Z,8.10
2023-04-04T11:58:37.137Z,8.60
2023-04-04T12:01:07.062Z,8.70
2023-04-04T12:03:36.547Z,8.70
2023-04-04T12:06:05.109Z,8.60
2023-04-04T12:08:36.448Z,8.30
2023-04-04T12:11:06.592Z,8.10
2023-04-04T12:13:34.807Z,7.80
2023-04-04T12:16:03.962Z,7.60
2023-04-04T12:18:33.526Z,7.50
2023-04-04T12:21:02.168Z,7.40
2023-04-04T12:23:35.057Z,7.20
2023-04-04T12:26:05.815Z,7.00
2023-04-04T12:28:35.239Z,6.90
2023-04-04T12:31:05.795Z,6.80
2023-04-04T12:33:36.319Z,6.80
2023-04-04T12:36:05.383Z,6.80
2023-04-04T12:38:33.898Z,6.80
2023-04-04T12:41:03.746Z,6.70
2023-04-04T12:43:33.880Z,6.70
2023-04-04T12:46:03.514Z,6.80
2023-04-04T12:48:32.518Z,6.80
2023-04-04T12:51:02.535Z,6.80
2023-04-04T12:53:33.081Z,6.90
2023-04-04T12:56:03.636Z,6.90
2023-04-04T12:58:34.832Z,6.90
2023-04-04T13:01:04.984Z,6.90
2023-04-04T13:03:35.066Z,6.80
2023-04-04T13:06:05.522Z,6.80
2023-04-04T13:08:34.329Z,6.80
2023-04-04T13:11:05.934Z,6.80
2023-04-04T13:13:36.458Z,6.70
2023-04-04T13:16:06.700Z,6.70
2023-04-04T13:18:38.375Z,6.70
2023-04-04T13:21:08.690Z,6.60
2023-04-04T13:23:39.653Z,6.50
2023-04-04T13:26:09.361Z,6.50
2023-04-04T13:28:40.300Z,6.50
2023-04-04T13:31:10.061Z,6.60
2023-04-04T13:33:38.969Z,6.60
2023-04-04T13:36:09.244Z,6.70
2023-04-04T13:38:37.478Z,6.70
2023-04-04T13:41:05.692Z,6.70
2023-04-04T13:43:33.886Z,6.70
2023-04-04T13:46:02.340Z,6.70
2023-04-04T13:48:31.274Z,6.70
2023-04-04T13:50:59.383Z,6.70
2023-04-04T13:53:28.849Z,6.80
2023-04-04T13:56:16.784Z,6.80
2023-04-04T13:58:45.918Z,6.90
2023-04-04T14:01:14.208Z,6.90
2023-04-04T14:03:42.463Z,7.00
2023-04-04T14:06:11.256Z,7.00
2023-04-04T14:08:41.237Z,7.00
2023-04-04T14:11:09.695Z,7.00
2023-04-04T14:13:38.427Z,7.10
2023-04-04T14:16:09.373Z,7.00
2023-04-04T14:18:39.721Z,7.00
2023-04-04T14:21:08.332Z,7.00
2023-04-04T14:23:36.479Z,7.00
2023-04-04T14:26:07.361Z,6.90
2023-04-04T14:28:38.682Z,6.90
2023-04-04T14:31:09.429Z,6.80
2023-04-04T14:33:37.605Z,6.80
2023-04-04T14:36:06.402Z,6.80
2023-04-04T14:38:34.539Z,6.90
2023-04-04T14:41:03.279Z,6.90
2023-04-04T14:43:32.728Z,6.90
2023-04-04T14:46:01.047Z,7.00
2023-04-04T14:48:29.289Z,7.00
2023-04-04T14:50:57.657Z,7.00
2023-04-04T14:53:25.968Z,7.00
2023-04-04T14:55:54.271Z,6.80
2023-04-04T14:58:22.418Z,6.80
2023-04-04T15:00:52.269Z,6.80
2023-04-04T15:03:20.490Z,6.70
2023-04-04T15:05:51.354Z,6.50
2023-04-04T15:08:19.619Z,6.40
2023-04-04T15:10:47.749Z,6.30
2023-04-04T15:13:15.881Z,6.30
2023-04-04T15:15:44.194Z,6.20
2023-04-04T15:18:13.738Z,6.20
2023-04-04T15:20:42.320Z,6.20
2023-04-04T15:23:10.523Z,6.10
2023-04-04T15:25:41.430Z,6.10
2023-04-04T15:28:09.612Z,6.10
2023-04-04T15:30:37.862Z,6.10
2023-04-04T15:33:06.383Z,6.10
2023-04-04T15:35:36.095Z,6.00
2023-04-04T15:38:04.451Z,6.00
2023-04-04T15:40:35.162Z,6.00
2023-04-04T15:43:06.784Z,5.90
2023-04-04T15:45:37.143Z,5.90
2023-04-04T15:48:05.622Z,6.00
2023-04-04T15:50:35.333Z,6.00
2023-04-04T15:53:03.458Z,5.90
2023-04-04T15:55:33.931Z,5.90
2023-04-04T15:58:02.083Z,5.90
2023-04-04T16:00:30.300Z,5.90
2023-04-04T16:02:59.019Z,5.90
2023-04-04T16:05:28.331Z,5.90
2023-04-04T16:07:57.814Z,5.80
2023-04-04T16:10:26.189Z,5.70
2023-04-04T16:12:54.313Z,5.70
2023-04-04T16:15:22.439Z,5.70
2023-04-04T16:17:52.426Z,5.60
2023-04-04T16:20:20.751Z,5.60
2023-04-04T16:22:48.961Z,5.60
2023-04-04T16:25:19.235Z,5.50
2023-04-04T16:27:47.434Z,5.50
2023-04-04T16:30:16.272Z,5.50
2023-04-04T16:32:46.768Z,5.40
2023-04-04T16:35:15.059Z,5.30
2023-04-04T16:37:43.225Z,5.30
2023-04-04T16:40:14.030Z,5.30
2023-04-04T16:42:44.750Z,5.20
2023-04-04T16:45:13.653Z,5.20
2023-04-04T16:47:41.802Z,5.10
2023-04-04T16:50:10.735Z,5.10
2023-04-04T16:52:38.834Z,5.10
2023-04-04T16:55:08.793Z,5.00
2023-04-04T16:57:36.936Z,5.00
2023-04-04T17:00:09.999Z,5.00
2023-04-04T17:02:45.213Z,5.00
2023-04-04T17:05:16.198Z,5.00
2023-04-04T17:07:44.648Z,5.00
2023-04-04T17:10:13.598Z,5.00
2023-04-04T17:12:41.826Z,4.90
2023-04-04T17:15:12.167Z,4.90
2023-04-04T17:17:40.670Z,5.00
2023-04-04T17:20:17.582Z,4.90
2023-04-04T17:22:49.773Z,4.90
2023-04-04T17:25:18.245Z,4.80
2023-04-04T17:27:46.361Z,4.90
2023-04-04T17:30:16.846Z,4.80
2023-04-04T17:32:45.142Z,4.80
2023-04-04T17:35:15.936Z,4.80
2023-04-04T17:37:44.160Z,4.70
2023-04-04T17:40:13.076Z,4.70
2023-04-04T17:42:41.186Z,4.70
2023-04-04T17:45:10.247Z,4.70
2023-04-04T17:47:39.708Z,4.70
2023-04-04T17:50:08.833Z,4.70
2023-04-04T17:52:36.978Z,4.60
2023-04-04T17:55:06.561Z,4.70
2023-04-04T17:57:34.825Z,4.60
2023-04-04T18:01:32.085Z,4.60
2023-04-04T18:04:00.395Z,4.60
2023-04-04T18:06:31.744Z,4.60
2023-04-04T18:09:00.658Z,4.50
2023-04-04T18:14:35.691Z,4.50
2023-04-04T18:17:05.433Z,4.50
2023-04-04T18:19:54.626Z,4.50
2023-04-04T18:25:09.789Z,4.60
2023-04-04T18:27:46.881Z,4.60
2023-04-04T18:30:16.766Z,4.60
2023-04-04T18:32:48.106Z,4.60
2023-04-04T18:35:30.237Z,4.50
2023-04-04T18:37:58.389Z,4.50
2023-04-04T18:40:26.761Z,4.50
2023-04-04T18:42:55.136Z,4.50
2023-04-04T18:45:33.566Z,4.50
2023-04-04T18:48:09.766Z,4.50
2023-04-04T18:50:38.018Z,4.50
2023-04-04T18:53:29.278Z,4.50
2023-04-04T18:55:57.610Z,4.40
2023-04-04T18:58:29.082Z,4.40
2023-04-04T19:00:58.708Z,4.40
2023-04-04T19:03:56.279Z,4.40
2023-04-04T19:06:27.943Z,4.30
2023-04-04T19:08:58.697Z,4.30
2023-04-04T19:11:29.013Z,4.30
2023-04-04T19:13:57.195Z,4.30
2023-04-04T19:16:25.313Z,4.30
2023-04-04T19:19:16.820Z,4.20
2023-04-04T19:21:45.101Z,4.20
2023-04-04T19:24:13.494Z,4.20
2023-04-04T19:26:41.683Z,4.20
2023-04-04T19:29:09.854Z,4.20
2023-04-04T19:31:37.983Z,4.20
2023-04-04T19:34:10.908Z,4.20
2023-04-04T19:36:39.139Z,4.20
2023-04-04T19:39:10.260Z,4.20
2023-04-04T19:41:39.748Z,4.10
2023-04-04T19:44:17.063Z,4.10
2023-04-04T19:46:45.237Z,4.10
2023-04-04T19:49:17.969Z,4.00
2023-04-04T19:51:53.754Z,4.00
2023-04-04T19:54:27.461Z,3.90
2023-04-04T19:57:03.642Z,3.80
2023-04-04T20:00:01.645Z,3.70
2023-04-04T20:02:57.076Z,3.60
2023-04-04T20:06:03.429Z,3.50
2023-04-04T20:08:46.682Z,3.50
2023-04-04T20:11:14.916Z,3.40
2023-04-04T20:13:46.176Z,3.40
2023-04-04T20:16:15.677Z,3.40
2023-04-04T20:18:45.084Z,3.30
2023-04-04T20:21:16.031Z,3.20
2023-04-04T20:23:48.510Z,3.10
2023-04-04T20:26:47.209Z,3.10
2023-04-04T20:29:17.271Z,3.10
2023-04-04T20:31:47.078Z,3.00
2023-04-04T20:34:41.881Z,2.90
2023-04-04T20:37:12.576Z,2.90
2023-04-04T20:39:46.215Z,2.80
2023-04-04T20:42:33.898Z,2.70
2023-04-04T20:45:33.554Z,2.70
2023-04-04T20:48:06.807Z,2.60
2023-04-04T20:50:44.368Z,2.60
2023-04-04T20:53:19.403Z,2.50
2023-04-04T20:55:53.020Z,2.40
2023-04-04T20:58:29.372Z,2.40
2023-04-04T21:00:59.133Z,2.30
2023-04-04T21:03:33.678Z,2.20
2023-04-04T21:06:10.033Z,2.20
2023-04-04T21:08:42.276Z,2.20
2023-04-04T21:11:12.495Z,2.10
2023-04-04T21:13:41.733Z,2.10
2023-04-04T21:16:14.334Z,2.10
2023-04-04T21:18:42.609Z,2.00
2023-04-04T21:21:16.875Z,2.00
2023-04-04T21:23:47.320Z,2.00
2023-04-04T21:26:33.961Z,1.90
2023-04-04T21:29:23.427Z,1.90
2023-04-04T21:31:53.283Z,1.80
2023-04-04T21:34:40.828Z,1.80
2023-04-04T21:37:15.173Z,1.80
2023-04-04T21:39:59.927Z,1.70
2023-04-04T21:42:31.762Z,1.60
2023-04-04T21:45:01.454Z,1.60
2023-04-04T21:47:31.349Z,1.60
2023-04-04T21:50:03.510Z,1.50
2023-04-04T21:52:59.087Z,1.60
2023-04-04T21:55:27.187Z,1.50
2023-04-04T21:58:44.491Z,1.50
2023-04-04T22:01:12.972Z,1.50
2023-04-04T22:03:41.318Z,1.40
2023-04-04T22:06:09.539Z,1.40
2023-04-04T22:08:37.714Z,1.30
2023-04-04T22:11:06.737Z,1.30
2023-04-04T22:13:42.991Z,1.20
2023-04-04T22:16:16.088Z,1.20
2023-04-04T22:18:47.957Z,1.20
2023-04-04T22:21:17.227Z,1.30
2023-04-04T22:23:45.516Z,1.20
2023-04-04T22:26:17.510Z,1.20
2023-04-04T22:28:50.709Z,1.20
2023-04-04T22:31:23.787Z,1.10
2023-04-04T22:33:52.069Z,1.10
2023-04-04T22:36:43.877Z,1.10
2023-04-04T22:39:15.763Z,1.10
2023-04-04T22:41:44.399Z,1.00
2023-04-04T22:44:17.894Z,1.00
2023-04-04T22:46:46.880Z,1.00
2023-04-04T22:49:16.556Z,1.00
2023-04-04T22:52:06.880Z,1.00
2023-04-04T22:54:37.915Z,1.00
2023-04-04T22:57:06.181Z,1.00
2023-04-04T22:59:37.391Z,1.00
2023-04-04T23:02:06.237Z,1.00
2023-04-04T23:04:35.627Z,1.00
2023-04-04T23:07:04.329Z,0.90
2023-04-04T23:09:38.391Z,0.90
2023-04-04T23:12:31.286Z,0.80
2023-04-04T23:15:03.782Z,0.80
2023-04-04T23:17:33.101Z,0.70
2023-04-04T23:20:01.685Z,0.70
2023-04-04T23:22:31.585Z,0.70
2023-04-04T23:24:59.996Z,0.60
2023-04-04T23:27:28.137Z,0.60
2023-04-04T23:30:00.331Z,0.60
2023-04-04T23:32:29.818Z,0.60
2023-04-04T23:34:58.107Z,0.50
2023-04-04T23:37:26.669Z,0.40
2023-04-04T23:39:55.802Z,0.40
2023-04-04T23:42:23.968Z,0.40
2023-04-04T23:44:52.300Z,0.40
2023-04-04T23:47:20.457Z,0.40
2023-04-04T23:49:49.932Z,0.40
2023-04-04T23:52:45.637Z,0.40
2023-04-04T23:55:13.730Z,0.30
2023-04-04T23:57:43.643Z,0.30
